createdAt,value
2017-09-10T00:00:12.054Z,12.20
2017-09-10T00:02:39.541Z,12.20
2017-09-10T00:05:07.030Z,12.10
2017-09-10T00:07:34.569Z,12.10
2017-09-10T00:10:02.070Z,12.10
2017-09-10T00:12:29.560Z,12.20
2017-09-10T00:14:57.871Z,12.20
2017-09-10T00:17:25.362Z,12.20
2017-09-10T00:19:52.858Z,12.20
2017-09-10T00:22:20.379Z,12.10
2017-09-10T00:24:47.878Z,12.20
2017-09-10T00:27:16.176Z,12.20
2017-09-10T00:29:43.666Z,12.20
2017-09-10T00:32:11.158Z,12.20
2017-09-10T00:34:38.690Z,12.30
2017-09-10T00:37:07.383Z,12.20
2017-09-10T00:39:34.881Z,12.10
2017-09-10T00:42:03.174Z,12.20
2017-09-10T00:44:30.665Z,12.20
2017-09-10T00:46:58.158Z,12.10
2017-09-10T00:49:25.670Z,12.10
2017-09-10T00:51:53.930Z,12.00
2017-09-10T00:54:21.452Z,12.00
2017-09-10T00:56:48.938Z,11.90
2017-09-10T00:59:16.469Z,11.90
2017-09-10T01:01:44.722Z,11.80
2017-09-10T01:04:12.993Z,11.80
2017-09-10T01:06:41.290Z,11.80
2017-09-10T01:09:08.790Z,11.80
2017-09-10T01:11:37.089Z,11.80
2017-09-10T01:14:04.578Z,11.80
2017-09-10T01:16:32.076Z,11.70
2017-09-10T01:18:59.598Z,11.70
2017-09-10T01:21:27.906Z,11.80
2017-09-10T01:23:55.433Z,11.70
2017-09-10T01:26:22.934Z,11.70
2017-09-10T01:28:51.194Z,11.60
2017-09-10T01:31:19.470Z,11.50
2017-09-10T01:33:47.002Z,11.50
2017-09-10T01:36:15.252Z,11.60
2017-09-10T01:38:43.506Z,11.50
2017-09-10T01:41:11.020Z,11.50
2017-09-10T01:43:38.518Z,11.40
2017-09-10T01:46:06.069Z,11.40
2017-09-10T01:48:33.554Z,11.30
2017-09-10T01:51:01.079Z,11.30
2017-09-10T01:53:28.570Z,11.30
2017-09-10T01:55:56.066Z,11.30
2017-09-10T01:58:23.585Z,11.30
2017-09-10T02:00:51.086Z,11.40
2017-09-10T02:03:18.618Z,11.40
2017-09-10T02:05:46.126Z,11.40
2017-09-10T02:08:13.614Z,11.40
2017-09-10T02:10:41.134Z,11.30
2017-09-10T02:13:08.630Z,11.30
2017-09-10T02:15:36.170Z,11.30
2017-09-10T02:18:03.695Z,11.30
2017-09-10T02:20:31.205Z,11.30
2017-09-10T02:22:58.694Z,11.40
2017-09-10T02:25:26.971Z,11.40
2017-09-10T02:27:54.486Z,11.40
2017-09-10T02:30:21.984Z,11.50
2017-09-10T02:32:49.493Z,11.40
2017-09-10T02:35:17.795Z,11.40
2017-09-10T02:37:45.285Z,11.40
2017-09-10T02:40:13.550Z,11.40
2017-09-10T02:42:41.846Z,11.30
2017-09-10T02:45:09.339Z,11.30
2017-09-10T02:47:36.839Z,11.20
2017-09-10T02:50:04.362Z,11.20
2017-09-10T02:52:31.861Z,11.20
2017-09-10T02:54:59.473Z,11.10
2017-09-10T02:57:26.977Z,11.10
2017-09-10T02:59:54.478Z,11.10
2017-09-10T03:02:22.014Z,11.10
2017-09-10T03:04:49.506Z,11.10
2017-09-10T03:07:17.001Z,11.10
2017-09-10T03:09:44.518Z,11.10
2017-09-10T03:12:12.019Z,11.10
2017-09-10T03:14:40.321Z,11.00
2017-09-10T03:17:07.816Z,11.00
2017-09-10T03:19:36.118Z,11.00
2017-09-10T03:22:03.776Z,10.90
2017-09-10T03:24:32.260Z,10.90
2017-09-10T03:26:59.750Z,11.00
2017-09-10T03:29:27.278Z,11.00
2017-09-10T03:31:55.697Z,10.90
2017-09-10T03:34:23.953Z,11.00
2017-09-10T03:36:52.394Z,11.00
2017-09-10T03:39:19.886Z,11.10
2017-09-10T03:41:50.170Z,11.00
2017-09-10T03:44:18.118Z,11.00
2017-09-10T03:46:46.465Z,11.00
2017-09-10T03:49:13.993Z,11.00
2017-09-10T03:51:42.249Z,11.00
2017-09-10T03:54:10.544Z,10.90
2017-09-10T03:56:38.035Z,10.90
2017-09-10T03:59:05.529Z,10.90
2017-09-10T04:01:33.057Z,10.90
2017-09-10T04:04:00.545Z,10.80
2017-09-10T04:06:28.049Z,10.80
2017-09-10T04:08:55.590Z,10.70
2017-09-10T04:11:23.729Z,10.60
2017-09-10T04:13:51.320Z,10.60
2017-09-10T04:16:20.307Z,10.60
2017-09-10T04:18:47.815Z,10.60
2017-09-10T04:21:15.305Z,10.60
2017-09-10T04:23:43.581Z,10.60
2017-09-10T04:26:12.038Z,10.60
2017-09-10T04:28:39.647Z,10.60
2017-09-10T04:31:07.921Z,10.50
2017-09-10T04:33:36.142Z,10.50
2017-09-10T04:36:04.002Z,10.40
2017-09-10T04:38:32.458Z,10.40
2017-09-10T04:40:59.971Z,10.40
2017-09-10T04:43:27.526Z,10.40
2017-09-10T04:45:55.025Z,10.40
2017-09-10T04:48:23.558Z,10.40
2017-09-10T04:50:51.117Z,10.50
2017-09-10T04:53:18.719Z,10.60
2017-09-10T04:55:46.257Z,10.60
2017-09-10T04:58:13.777Z,10.50
2017-09-10T05:00:41.278Z,10.50
2017-09-10T05:03:08.803Z,10.50
2017-09-10T05:05:36.294Z,10.50
2017-09-10T05:08:03.796Z,10.60
2017-09-10T05:10:32.082Z,10.70
2017-09-10T05:12:59.570Z,10.70
2017-09-10T05:15:27.102Z,10.60
2017-09-10T05:17:54.616Z,10.60
2017-09-10T05:20:22.105Z,10.60
2017-09-10T05:22:49.626Z,10.50
2017-09-10T05:25:17.120Z,10.50
2017-09-10T05:27:45.382Z,10.60
2017-09-10T05:30:13.682Z,10.50
2017-09-10T05:32:41.213Z,10.50
2017-09-10T05:35:08.739Z,10.60
2017-09-10T05:37:36.231Z,10.60
2017-09-10T05:40:03.782Z,10.80
2017-09-10T05:42:31.274Z,10.80
2017-09-10T05:44:59.570Z,10.90
2017-09-10T05:47:27.063Z,10.80
2017-09-10T05:49:54.553Z,11.00
2017-09-10T05:52:22.080Z,11.00
2017-09-10T05:54:49.578Z,11.10
2017-09-10T05:57:17.095Z,11.10
2017-09-10T05:59:44.614Z,11.00
2017-09-10T06:02:12.117Z,11.00
2017-09-10T06:04:40.398Z,11.20
2017-09-10T06:07:07.882Z,11.20
2017-09-10T06:09:35.405Z,11.30
2017-09-10T06:12:02.906Z,11.30
2017-09-10T06:14:31.191Z,11.50
2017-09-10T06:16:58.709Z,11.50
2017-09-10T06:19:26.201Z,11.60
2017-09-10T06:21:53.769Z,11.50
2017-09-10T06:24:21.258Z,11.60
2017-09-10T06:26:49.523Z,11.60
2017-09-10T06:29:17.059Z,11.60
2017-09-10T06:31:44.562Z,11.70
2017-09-10T06:34:12.053Z,11.90
2017-09-10T06:36:40.279Z,12.00
2017-09-10T06:39:07.776Z,12.20
2017-09-10T06:41:35.266Z,12.40
2017-09-10T06:44:02.790Z,12.60
2017-09-10T06:46:30.317Z,12.70
2017-09-10T06:48:57.806Z,12.80
2017-09-10T06:51:26.121Z,13.00
2017-09-10T06:53:53.618Z,13.00
2017-09-10T06:56:21.877Z,13.30
2017-09-10T06:58:50.159Z,13.40
2017-09-10T07:01:17.706Z,13.40
2017-09-10T07:03:45.242Z,13.40
2017-09-10T07:06:12.741Z,13.60
2017-09-10T07:08:40.256Z,13.70
2017-09-10T07:11:07.749Z,13.80
2017-09-10T07:13:36.042Z,13.90
2017-09-10T07:16:03.550Z,13.90
2017-09-10T07:18:31.821Z,14.00
2017-09-10T07:21:00.138Z,14.10
2017-09-10T07:23:27.627Z,14.10
2017-09-10T07:25:55.906Z,14.00
2017-09-10T07:28:23.430Z,14.00
2017-09-10T07:30:51.678Z,14.00
2017-09-10T07:33:19.174Z,13.90
2017-09-10T07:35:46.707Z,14.10
2017-09-10T07:38:14.233Z,14.30
2017-09-10T07:40:41.720Z,14.40
2017-09-10T07:43:09.253Z,14.40
2017-09-10T07:45:36.743Z,14.30
2017-09-10T07:48:05.002Z,14.50
2017-09-10T07:50:32.557Z,14.40
2017-09-10T07:53:00.069Z,14.50
2017-09-10T07:55:27.604Z,14.60
2017-09-10T07:57:55.099Z,14.70
2017-09-10T08:00:23.362Z,14.70
2017-09-10T08:02:50.879Z,14.70
2017-09-10T08:05:19.142Z,14.70
2017-09-10T08:07:47.424Z,14.60
2017-09-10T08:10:15.710Z,14.70
2017-09-10T08:12:43.206Z,14.60
2017-09-10T08:15:10.736Z,14.70
2017-09-10T08:17:38.241Z,14.80
2017-09-10T08:20:05.738Z,14.70
2017-09-10T08:22:34.034Z,14.80
2017-09-10T08:25:01.546Z,14.80
2017-09-10T08:27:29.797Z,14.70
2017-09-10T08:29:57.313Z,14.70
2017-09-10T08:32:24.813Z,14.70
2017-09-10T08:34:52.342Z,14.80
2017-09-10T08:37:20.603Z,15.00
2017-09-10T08:39:48.858Z,14.90
2017-09-10T08:42:17.155Z,15.00
2017-09-10T08:44:44.657Z,15.00
2017-09-10T08:47:13.005Z,15.10
2017-09-10T08:49:40.530Z,15.10
2017-09-10T08:52:08.021Z,15.00
2017-09-10T08:54:36.281Z,15.20
2017-09-10T08:57:03.806Z,15.20
2017-09-10T08:59:32.074Z,15.40
2017-09-10T09:01:59.734Z,15.30
2017-09-10T09:04:28.017Z,15.40
2017-09-10T09:06:55.504Z,15.40
2017-09-10T09:09:23.026Z,15.40
2017-09-10T09:11:50.566Z,15.40
2017-09-10T09:14:18.065Z,15.50
2017-09-10T09:16:46.321Z,15.70
2017-09-10T09:19:13.862Z,15.60
2017-09-10T09:21:42.131Z,15.80
2017-09-10T09:24:10.394Z,15.80
2017-09-10T09:26:38.690Z,16.00
2017-09-10T09:29:06.188Z,16.00
2017-09-10T09:31:34.625Z,16.20
2017-09-10T09:34:02.146Z,16.20
2017-09-10T09:36:30.446Z,16.30
2017-09-10T09:38:57.946Z,16.20
2017-09-10T09:41:25.439Z,16.30
2017-09-10T09:43:53.733Z,16.40
2017-09-10T09:46:21.225Z,16.30
2017-09-10T09:48:48.717Z,16.40
2017-09-10T09:51:16.278Z,16.40
2017-09-10T09:53:43.770Z,16.50
2017-09-10T09:56:11.263Z,16.50
2017-09-10T09:58:38.793Z,16.50
2017-09-10T10:01:06.278Z,16.50
2017-09-10T10:03:33.766Z,16.50
2017-09-10T10:06:01.314Z,16.60
2017-09-10T10:08:28.828Z,16.60
2017-09-10T10:10:56.319Z,16.40
2017-09-10T10:13:23.852Z,16.60
2017-09-10T10:15:51.340Z,16.60
2017-09-10T10:18:18.846Z,16.80
2017-09-10T10:20:46.382Z,16.90
2017-09-10T10:23:13.875Z,16.90
2017-09-10T10:25:41.406Z,16.90
2017-09-10T10:28:08.945Z,16.90
2017-09-10T10:30:36.462Z,17.10
2017-09-10T10:33:04.778Z,17.50
2017-09-10T10:35:32.322Z,17.50
2017-09-10T10:38:00.634Z,18.00
2017-09-10T10:40:28.134Z,17.90
2017-09-10T10:42:55.718Z,17.90
2017-09-10T10:45:23.214Z,18.10
2017-09-10T10:47:50.709Z,18.00
2017-09-10T10:50:18.240Z,18.00
2017-09-10T10:52:45.743Z,17.80
2017-09-10T10:55:13.237Z,17.80
2017-09-10T10:57:40.766Z,17.70
2017-09-10T11:00:08.269Z,17.60
2017-09-10T11:02:36.523Z,17.70
2017-09-10T11:05:04.846Z,17.70
2017-09-10T11:07:32.341Z,17.70
2017-09-10T11:10:00.597Z,17.70
2017-09-10T11:12:28.887Z,17.80
2017-09-10T11:14:56.381Z,17.80
2017-09-10T11:17:23.887Z,17.80
2017-09-10T11:19:51.426Z,17.80
2017-09-10T11:22:18.927Z,18.10
2017-09-10T11:24:47.236Z,18.20
2017-09-10T11:27:14.760Z,18.10
2017-09-10T11:29:43.026Z,17.90
2017-09-10T11:32:10.525Z,17.90
2017-09-10T11:34:38.054Z,18.20
2017-09-10T11:37:06.323Z,18.30
2017-09-10T11:39:33.831Z,18.30
2017-09-10T11:42:01.377Z,18.20
2017-09-10T11:44:28.870Z,17.70
2017-09-10T11:46:57.309Z,17.60
2017-09-10T11:49:24.928Z,17.60
2017-09-10T11:51:52.437Z,17.50
2017-09-10T11:54:20.754Z,17.40
2017-09-10T11:56:49.025Z,17.30
2017-09-10T11:59:16.582Z,17.20
2017-09-10T12:01:44.120Z,17.30
2017-09-10T12:04:11.626Z,17.50
2017-09-10T12:06:39.130Z,17.60
2017-09-10T12:09:07.753Z,17.70
2017-09-10T12:11:35.290Z,18.00
2017-09-10T12:14:03.001Z,18.10
2017-09-10T12:16:30.622Z,18.30
2017-09-10T12:18:58.871Z,18.20
2017-09-10T12:21:26.424Z,18.30
2017-09-10T12:23:53.962Z,18.30
2017-09-10T12:26:21.454Z,18.30
2017-09-10T12:28:49.724Z,18.40
2017-09-10T12:31:17.243Z,18.40
2017-09-10T12:33:44.774Z,18.40
2017-09-10T12:36:12.266Z,18.50
2017-09-10T12:38:39.801Z,18.50
2017-09-10T12:41:07.298Z,18.20
2017-09-10T12:43:34.828Z,18.10
2017-09-10T12:46:02.357Z,18.30
2017-09-10T12:48:29.862Z,18.20
2017-09-10T12:51:00.212Z,18.30
2017-09-10T12:53:27.774Z,18.50
2017-09-10T12:55:57.228Z,18.40
2017-09-10T12:58:24.756Z,18.30
2017-09-10T13:00:52.262Z,18.20
2017-09-10T13:03:20.657Z,18.10
2017-09-10T13:05:48.262Z,18.20
2017-09-10T13:08:15.771Z,18.30
2017-09-10T13:10:43.313Z,17.90
2017-09-10T13:13:11.581Z,18.10
2017-09-10T13:15:39.110Z,18.00
2017-09-10T13:18:06.620Z,18.10
2017-09-10T13:20:34.110Z,18.00
2017-09-10T13:23:02.405Z,18.00
2017-09-10T13:25:29.908Z,18.00
2017-09-10T13:27:58.170Z,18.10
2017-09-10T13:30:26.470Z,18.20
2017-09-10T13:32:54.002Z,18.20
2017-09-10T13:35:21.517Z,18.20
2017-09-10T13:37:49.796Z,17.90
2017-09-10T13:40:18.082Z,17.90
2017-09-10T13:42:45.597Z,17.90
2017-09-10T13:45:13.906Z,17.70
2017-09-10T13:47:41.398Z,17.70
2017-09-10T13:50:09.689Z,17.70
2017-09-10T13:52:37.190Z,17.70
2017-09-10T13:55:04.726Z,17.70
2017-09-10T13:57:32.340Z,17.80
2017-09-10T13:59:59.829Z,18.00
2017-09-10T14:02:28.123Z,17.80
2017-09-10T14:04:55.636Z,17.80
2017-09-10T14:07:23.904Z,17.60
2017-09-10T14:09:52.217Z,17.40
2017-09-10T14:12:19.763Z,17.40
2017-09-10T14:14:47.301Z,17.50
2017-09-10T14:17:14.822Z,17.50
2017-09-10T14:19:42.332Z,17.70
2017-09-10T14:22:10.633Z,17.90
2017-09-10T14:24:38.130Z,17.80
2017-09-10T14:27:06.453Z,18.00
2017-09-10T14:29:33.982Z,18.00
2017-09-10T14:32:01.520Z,17.80
2017-09-10T14:34:29.019Z,17.70
2017-09-10T14:36:57.318Z,17.50
2017-09-10T14:39:24.870Z,17.50
2017-09-10T14:41:52.370Z,17.50
2017-09-10T14:44:20.634Z,17.30
2017-09-10T14:46:48.162Z,17.30
2017-09-10T14:49:15.661Z,17.30
2017-09-10T14:51:43.203Z,17.30
2017-09-10T14:54:10.710Z,17.40
2017-09-10T14:56:38.971Z,17.40
2017-09-10T14:59:07.283Z,17.40
2017-09-10T15:01:34.782Z,17.40
2017-09-10T15:04:03.043Z,17.20
2017-09-10T15:06:30.566Z,17.20
2017-09-10T15:08:58.063Z,17.00
2017-09-10T15:11:25.558Z,17.00
2017-09-10T15:13:53.845Z,17.00
2017-09-10T15:16:21.342Z,17.00
2017-09-10T15:18:48.861Z,17.10
2017-09-10T15:21:16.353Z,17.00
2017-09-10T15:23:44.669Z,17.10
2017-09-10T15:26:12.176Z,17.10
2017-09-10T15:28:40.458Z,17.00
2017-09-10T15:31:08.005Z,17.00
2017-09-10T15:33:35.509Z,17.00
2017-09-10T15:36:03.770Z,16.80
2017-09-10T15:38:31.325Z,16.70
2017-09-10T15:40:58.822Z,16.80
2017-09-10T15:43:26.325Z,16.80
2017-09-10T15:45:53.845Z,16.80
2017-09-10T15:48:22.110Z,16.60
2017-09-10T15:50:49.645Z,16.60
2017-09-10T15:53:17.930Z,16.30
2017-09-10T15:55:45.422Z,16.30
2017-09-10T15:58:12.950Z,16.20
2017-09-10T16:00:40.438Z,16.20
2017-09-10T16:03:07.935Z,16.20
2017-09-10T16:05:35.469Z,16.10
2017-09-10T16:08:02.961Z,16.00
2017-09-10T16:10:31.226Z,15.90
2017-09-10T16:12:58.745Z,15.90
2017-09-10T16:15:26.242Z,15.80
2017-09-10T16:17:55.438Z,15.90
2017-09-10T16:20:22.946Z,15.80
2017-09-10T16:22:50.446Z,15.80
2017-09-10T16:25:18.001Z,15.90
2017-09-10T16:27:46.247Z,15.90
2017-09-10T16:30:15.529Z,15.90
2017-09-10T16:32:43.058Z,15.90
2017-09-10T16:35:11.712Z,15.90
2017-09-10T16:37:39.216Z,15.80
2017-09-10T16:40:06.718Z,15.90
2017-09-10T16:42:34.799Z,15.70
2017-09-10T16:45:02.637Z,15.60
2017-09-10T16:47:30.282Z,15.70
2017-09-10T16:49:58.746Z,15.50
2017-09-10T16:52:27.094Z,15.40
2017-09-10T16:54:54.631Z,15.40
2017-09-10T16:57:22.164Z,15.50
2017-09-10T16:59:49.662Z,15.30
2017-09-10T17:02:17.154Z,15.30
2017-09-10T17:04:44.701Z,15.20
2017-09-10T17:07:12.217Z,15.00
2017-09-10T17:09:39.708Z,15.10
2017-09-10T17:12:07.251Z,15.20
2017-09-10T17:14:34.746Z,15.10
2017-09-10T17:17:03.005Z,15.00
2017-09-10T17:19:31.743Z,15.00
2017-09-10T17:22:00.783Z,15.00
2017-09-10T17:24:29.331Z,15.00
2017-09-10T17:26:58.179Z,14.90
2017-09-10T17:29:25.710Z,14.80
2017-09-10T17:31:53.958Z,14.80
2017-09-10T17:34:23.180Z,14.70
2017-09-10T17:36:50.762Z,14.70
2017-09-10T17:39:18.264Z,14.60
2017-09-10T17:41:45.759Z,14.60
2017-09-10T17:44:13.290Z,14.70
2017-09-10T17:46:40.777Z,14.60
2017-09-10T17:49:09.073Z,14.50
2017-09-10T17:51:37.395Z,14.50
2017-09-10T17:54:04.883Z,14.50
2017-09-10T17:56:33.163Z,14.40
2017-09-10T17:59:00.694Z,14.40
2017-09-10T18:01:28.194Z,14.40
2017-09-10T18:03:55.701Z,14.40
2017-09-10T18:06:23.257Z,14.40
2017-09-10T18:08:50.913Z,14.40
2017-09-10T18:11:18.426Z,14.40
2017-09-10T18:13:45.976Z,14.30
2017-09-10T18:16:13.486Z,14.30
2017-09-10T18:18:41.750Z,14.10
2017-09-10T18:21:10.054Z,14.20
2017-09-10T18:23:37.552Z,14.20
2017-09-10T18:26:05.042Z,14.10
2017-09-10T18:28:32.594Z,14.10
2017-09-10T18:31:00.090Z,14.00
2017-09-10T18:33:27.592Z,14.10
2017-09-10T18:35:55.106Z,14.10
2017-09-10T18:38:22.618Z,14.00
2017-09-10T18:40:50.158Z,14.00
2017-09-10T18:43:18.429Z,14.00
2017-09-10T18:45:45.917Z,14.00
2017-09-10T18:48:13.457Z,14.00
2017-09-10T18:50:40.966Z,13.90
2017-09-10T18:53:08.454Z,13.90
2017-09-10T18:55:35.985Z,13.90
2017-09-10T18:58:03.481Z,13.90
2017-09-10T19:00:30.990Z,13.90
2017-09-10T19:02:58.507Z,13.90
2017-09-10T19:05:26.039Z,14.00
2017-09-10T19:07:53.538Z,14.00
2017-09-10T19:10:21.034Z,13.90
2017-09-10T19:12:48.597Z,14.00
2017-09-10T19:15:16.095Z,14.10
2017-09-10T19:17:43.606Z,14.20
2017-09-10T19:20:11.938Z,14.20
2017-09-10T19:22:39.437Z,14.20
2017-09-10T19:25:06.928Z,14.20
2017-09-10T19:27:34.470Z,14.30
2017-09-10T19:30:01.983Z,14.30
2017-09-10T19:32:29.529Z,14.30
2017-09-10T19:34:57.034Z,14.20
2017-09-10T19:37:24.530Z,14.10
2017-09-10T19:39:52.278Z,14.20
2017-09-10T19:42:19.810Z,14.10
2017-09-10T19:44:47.321Z,14.20
2017-09-10T19:47:15.620Z,14.20
2017-09-10T19:49:43.159Z,14.20
2017-09-10T19:52:10.711Z,14.20
2017-09-10T19:54:38.213Z,14.20
2017-09-10T19:57:06.514Z,14.20
2017-09-10T19:59:34.015Z,14.20
2017-09-10T20:02:01.515Z,14.10
2017-09-10T20:04:29.100Z,14.20
2017-09-10T20:06:57.357Z,14.10
2017-09-10T20:09:25.612Z,14.10
2017-09-10T20:11:53.155Z,14.10
2017-09-10T20:14:20.647Z,14.10
2017-09-10T20:16:48.154Z,14.10
2017-09-10T20:19:16.459Z,14.20
2017-09-10T20:21:43.976Z,14.10
2017-09-10T20:24:11.466Z,14.20
2017-09-10T20:26:38.979Z,14.10
2017-09-10T20:29:06.485Z,14.10
2017-09-10T20:31:34.781Z,14.10
2017-09-10T20:34:02.294Z,14.10
2017-09-10T20:36:30.546Z,14.20
2017-09-10T20:38:58.840Z,14.10
2017-09-10T20:41:26.342Z,14.10
2017-09-10T20:43:53.830Z,14.10
2017-09-10T20:46:21.357Z,14.10
2017-09-10T20:48:48.857Z,14.10
2017-09-10T20:51:17.115Z,14.20
2017-09-10T20:53:44.645Z,14.20
2017-09-10T20:56:12.146Z,14.10
2017-09-10T20:58:39.638Z,14.20
2017-09-10T21:01:07.170Z,14.20
2017-09-10T21:03:35.446Z,14.10
2017-09-10T21:06:02.946Z,14.10
2017-09-10T21:08:30.478Z,14.20
2017-09-10T21:10:58.736Z,14.20
2017-09-10T21:13:26.993Z,14.20
2017-09-10T21:15:55.277Z,14.30
2017-09-10T21:18:22.766Z,14.20
2017-09-10T21:20:50.273Z,14.30
2017-09-10T21:23:17.799Z,14.30
2017-09-10T21:25:45.294Z,14.30
2017-09-10T21:28:12.809Z,14.30
2017-09-10T21:30:40.303Z,14.30
2017-09-10T21:33:08.602Z,14.30
2017-09-10T21:35:36.091Z,14.30
2017-09-10T21:38:03.590Z,14.40
2017-09-10T21:40:31.121Z,14.40
2017-09-10T21:42:58.618Z,14.40
2017-09-10T21:45:26.113Z,14.40
2017-09-10T21:47:53.634Z,14.30
2017-09-10T21:50:21.129Z,14.40
2017-09-10T21:52:49.422Z,14.40
2017-09-10T21:55:16.932Z,14.40
2017-09-10T21:57:44.466Z,14.40
2017-09-10T22:00:11.961Z,14.50
2017-09-10T22:02:40.230Z,14.40
2017-09-10T22:05:08.517Z,14.40
2017-09-10T22:07:36.042Z,14.40
2017-09-10T22:10:03.538Z,14.40
2017-09-10T22:12:31.030Z,14.40
2017-09-10T22:14:58.562Z,14.40
2017-09-10T22:17:26.823Z,14.40
2017-09-10T22:19:55.081Z,14.50
2017-09-10T22:22:23.372Z,14.50
2017-09-10T22:24:50.866Z,14.50
2017-09-10T22:27:51.077Z,14.50
2017-09-10T22:30:18.569Z,14.60
2017-09-10T22:32:46.074Z,14.60
2017-09-10T22:35:14.364Z,14.60
2017-09-10T22:37:41.869Z,14.60
2017-09-10T22:40:09.394Z,14.60
2017-09-10T22:42:36.894Z,14.50
2017-09-10T22:45:04.431Z,14.50
2017-09-10T22:47:31.931Z,14.60
2017-09-10T22:49:59.432Z,14.60
2017-09-10T22:52:26.954Z,14.60
2017-09-10T22:54:54.446Z,14.60
2017-09-10T22:57:21.974Z,14.70
2017-09-10T22:59:49.481Z,14.70
2017-09-10T23:02:17.358Z,14.70
2017-09-10T23:04:44.893Z,14.60
2017-09-10T23:07:12.395Z,14.70
2017-09-10T23:09:40.670Z,14.70
2017-09-10T23:12:08.957Z,14.80
2017-09-10T23:14:36.447Z,14.80
2017-09-10T23:17:03.974Z,14.80
2017-09-10T23:19:31.470Z,14.80
2017-09-10T23:21:59.734Z,14.80
2017-09-10T23:24:27.261Z,14.80
2017-09-10T23:26:54.752Z,14.90
2017-09-10T23:29:22.243Z,15.00
2017-09-10T23:31:50.517Z,15.00
2017-09-10T23:34:18.774Z,15.00
2017-09-10T23:36:47.117Z,15.00
2017-09-10T23:39:14.605Z,15.00
2017-09-10T23:41:42.098Z,15.00
2017-09-10T23:44:09.647Z,15.10
2017-09-10T23:46:37.145Z,15.00
2017-09-10T23:49:04.630Z,15.00
2017-09-10T23:51:32.162Z,14.90
2017-09-10T23:53:59.650Z,14.70
2017-09-10T23:56:27.142Z,14.70
2017-09-10T23:58:55.443Z,14.60
